Time;durP1;ratioP1;P1;durP2;ratioP2;P2;SDS_P1;SDS_P2;PMS_P1;PMS_P2;Temp;Humidity;BMP_temperature;BMP_pressure;BME280_temperature;BME280_humidity;BME280_pressure;Samples;Min_cycle;Max_cycle;Signal;HPM_P1;HPM_P2
2023/03/13 00:00:50;;;;;;;6.10;4.85;;;;;;;-142.70;100.00;60390.16;4871871;29;20032;-73
2023/03/13 00:03:15;;;;;;;6.18;4.25;;;;;;;-142.70;100.00;60390.16;4855568;29;20127;-74
2023/03/13 00:05:40;;;;;;;5.00;4.45;;;;;;;-142.70;100.00;60390.16;4898484;29;20521;-74
2023/03/13 00:08:06;;;;;;;4.93;4.43;;;;;;;-142.70;100.00;60390.16;4878611;29;20039;-73
2023/03/13 00:10:31;;;;;;;7.95;4.75;;;;;;;-142.70;100.00;60390.16;4870832;29;20032;-74
2023/03/13 00:12:57;;;;;;;4.65;4.10;;;;;;;-142.70;100.00;60390.16;4887425;29;20039;-74
2023/03/13 00:15:22;;;;;;;4.22;3.83;;;;;;;-142.70;100.00;60390.16;4876145;29;20041;-77
2023/03/13 00:17:48;;;;;;;4.72;4.32;;;;;;;-142.70;100.00;60390.16;4869033;29;20033;-77
2023/03/13 00:20:16;;;;;;;4.45;4.05;;;;;;;-142.70;100.00;60390.16;4875321;29;20151;-75
2023/03/13 00:22:41;;;;;;;4.80;4.40;;;;;;;-142.70;100.00;60390.16;4854372;29;20024;-74
2023/03/13 00:25:07;;;;;;;5.68;4.20;;;;;;;-142.70;100.00;60390.16;4889759;29;20490;-74
2023/03/13 00:27:33;;;;;;;5.47;4.53;;;;;;;-142.70;100.00;60390.16;4890065;29;20028;-74
2023/03/13 00:29:59;;;;;;;4.88;4.45;;;;;;;-142.70;100.00;60390.16;4863241;29;20037;-74
2023/03/13 00:32:24;;;;;;;5.35;4.75;;;;;;;-142.70;100.00;60390.16;4883464;29;20529;-74
2023/03/13 00:34:49;;;;;;;4.60;4.20;;;;;;;-142.70;100.00;60390.16;4876699;29;20028;-75
2023/03/13 00:37:15;;;;;;;5.00;4.50;;;;;;;-142.70;100.00;60390.16;4889366;29;20549;-75
2023/03/13 00:39:40;;;;;;;7.18;4.85;;;;;;;-142.70;100.00;60390.16;4873272;29;20032;-75
2023/03/13 00:42:06;;;;;;;6.80;4.95;;;;;;;-142.70;100.00;60390.16;4886168;29;20029;-75
2023/03/13 00:44:31;;;;;;;5.00;4.50;;;;;;;-142.70;100.00;60390.16;4872273;29;20043;-75
2023/03/13 00:46:56;;;;;;;5.85;4.55;;;;;;;-142.70;100.00;60390.16;4885013;29;20028;-74
2023/03/13 00:49:22;;;;;;;5.88;5.20;;;;;;;-142.70;100.00;60390.16;4896519;29;20426;-74
2023/03/13 00:51:47;;;;;;;5.10;4.60;;;;;;;-142.70;100.00;60390.16;4905276;29;20040;-74
2023/03/13 00:54:13;;;;;;;5.07;4.60;;;;;;;-142.70;100.00;60390.16;4875107;29;20034;-75
2023/03/13 00:56:38;;;;;;;5.20;4.70;;;;;;;-142.70;100.00;60390.16;4884042;29;20036;-74
2023/03/13 00:59:03;;;;;;;5.68;5.05;;;;;;;-142.70;100.00;60390.16;4867387;29;20084;-74
2023/03/13 01:01:36;;;;;;;4.97;3.97;;;;;;;-142.70;100.00;60390.16;4881149;29;20501;-74
2023/03/13 01:04:06;;;;;;;6.22;4.75;;;;;;;-142.70;100.00;60390.16;4872930;29;20546;-75
2023/03/13 01:06:34;;;;;;;5.70;5.20;;;;;;;-142.70;100.00;60390.16;4873571;29;20059;-75
2023/03/13 01:09:00;;;;;;;5.85;4.95;;;;;;;-142.70;100.00;60390.16;4889063;29;20060;-75
2023/03/13 01:11:28;;;;;;;7.97;6.32;;;;;;;-142.70;100.00;60390.16;4888627;29;20123;-74
2023/03/13 01:13:59;;;;;;;16.58;8.80;;;;;;;-142.70;100.00;60390.16;4888902;29;20111;-74
2023/03/13 01:16:25;;;;;;;18.13;9.60;;;;;;;-142.70;100.00;60390.16;4879761;29;20032;-74
2023/03/13 01:18:53;;;;;;;6.55;5.93;;;;;;;-142.70;100.00;60390.16;4883851;29;20050;-77
2023/03/13 01:21:20;;;;;;;7.15;6.00;;;;;;;-142.70;100.00;60390.16;4888512;29;20073;-77
2023/03/13 01:23:47;;;;;;;5.97;5.22;;;;;;;-142.70;100.00;60390.16;4889144;29;20024;-75
2023/03/13 01:26:13;;;;;;;15.25;8.52;;;;;;;-142.70;100.00;60390.16;4888742;29;20032;-74
2023/03/13 01:28:38;;;;;;;7.13;6.43;;;;;;;-142.70;100.00;60390.16;4877433;29;20047;-75
2023/03/13 01:31:17;;;;;;;7.35;6.40;;;;;;;-142.70;100.00;60390.16;4875725;29;20024;-75
2023/03/13 01:33:43;;;;;;;14.37;9.10;;;;;;;-142.70;100.00;60390.16;4888598;29;20024;-75
2023/03/13 01:36:08;;;;;;;19.77;11.13;;;;;;;-142.70;100.00;60390.16;4888681;29;20063;-75
2023/03/13 01:38:34;;;;;;;29.10;14.65;;;;;;;-142.70;100.00;60390.16;4872889;29;20119;-77
2023/03/13 01:41:00;;;;;;;24.48;11.25;;;;;;;-142.70;100.00;60390.16;4888522;29;20043;-77
2023/03/13 01:43:30;;;;;;;34.30;14.55;;;;;;;-142.70;100.00;60390.16;4872683;29;20511;-77
2023/03/13 01:45:58;;;;;;;38.30;16.45;;;;;;;-142.70;100.00;60390.16;4872559;29;20569;-77
2023/03/13 01:48:30;;;;;;;35.90;15.20;;;;;;;-142.70;100.00;60390.16;4875525;29;20176;-76
2023/03/13 01:50:59;;;;;;;14.60;9.50;;;;;;;-142.70;100.00;60390.16;4872191;29;20051;-75
2023/03/13 01:53:25;;;;;;;19.00;11.88;;;;;;;-142.70;100.00;60390.16;4904535;29;20379;-75
2023/03/13 01:55:52;;;;;;;25.38;11.85;;;;;;;-142.70;100.00;60390.16;4872044;29;20321;-75
2023/03/13 01:58:18;;;;;;;21.25;11.45;;;;;;;-142.70;100.00;60390.16;4877691;29;20040;-75
2023/03/13 02:00:45;;;;;;;18.17;10.27;;;;;;;-142.70;100.00;60390.16;4883416;29;20032;-74
2023/03/13 02:03:14;;;;;;;14.77;8.68;;;;;;;-142.70;100.00;60390.16;4891091;29;20048;-74
2023/03/13 02:05:41;;;;;;;49.72;22.85;;;;;;;-142.70;100.00;60390.16;4886522;29;20031;-77
2023/03/13 02:08:11;;;;;;;44.47;20.90;;;;;;;-142.70;100.00;60390.16;4887345;29;20040;-77
2023/03/13 02:10:40;;;;;;;54.03;21.65;;;;;;;-142.70;100.00;60390.16;4873120;29;20040;-75
2023/03/13 02:13:05;;;;;;;41.65;17.70;;;;;;;-142.70;100.00;60390.16;4887886;29;20028;-75
2023/03/13 02:15:31;;;;;;;15.80;10.93;;;;;;;-142.70;100.00;60390.16;4874902;29;20747;-75
2023/03/13 02:17:57;;;;;;;9.85;8.85;;;;;;;-142.70;100.00;60390.16;4880077;29;20498;-75
2023/03/13 02:20:22;;;;;;;8.50;7.55;;;;;;;-142.70;100.00;60390.16;4866618;29;20125;-75
2023/03/13 02:23:02;;;;;;;9.30;7.88;;;;;;;-142.70;100.00;60390.16;4899562;29;20040;-77
2023/03/13 02:25:40;;;;;;;8.15;6.95;;;;;;;-142.70;100.00;60390.16;4880775;29;20112;-77
2023/03/13 02:28:08;;;;;;;8.35;7.55;;;;;;;-142.70;100.00;60390.16;4891137;29;20442;-76
2023/03/13 02:30:34;;;;;;;8.98;8.07;;;;;;;-142.70;100.00;60390.16;4850420;29;20040;-76
2023/03/13 02:33:00;;;;;;;8.88;7.75;;;;;;;-142.70;100.00;60390.16;4886092;29;20087;-76
2023/03/13 02:35:26;;;;;;;8.23;7.40;;;;;;;-142.70;100.00;60390.16;4877163;29;20402;-77
2023/03/13 02:37:59;;;;;;;8.45;7.50;;;;;;;-142.70;100.00;60390.16;4900426;29;20107;-77
2023/03/13 02:40:30;;;;;;;11.35;8.70;;;;;;;-142.70;100.00;60390.16;4887816;29;20614;-77
2023/03/13 02:42:58;;;;;;;21.95;14.20;;;;;;;-142.70;100.00;60390.16;4883481;29;20031;-76
2023/03/13 02:45:23;;;;;;;12.65;9.32;;;;;;;-142.70;100.00;60390.16;4874527;29;20044;-77
2023/03/13 02:47:48;;;;;;;12.45;8.50;;;;;;;-142.70;100.00;60390.16;4868721;29;20568;-77
2023/03/13 02:50:14;;;;;;;10.35;8.38;;;;;;;-142.70;100.00;60390.16;4862793;29;20408;-74
2023/03/13 02:52:43;;;;;;;9.60;7.75;;;;;;;-142.70;100.00;60390.16;4887849;29;20040;-74
2023/03/13 02:55:12;;;;;;;10.98;7.93;;;;;;;-142.70;100.00;60390.16;4886733;29;20034;-76
2023/03/13 02:57:38;;;;;;;9.45;8.07;;;;;;;-142.70;100.00;60390.16;4880916;29;20104;-76
2023/03/13 03:00:06;;;;;;;10.13;9.13;;;;;;;-142.70;100.00;60390.16;4871020;29;20028;-76
2023/03/13 03:02:31;;;;;;;10.07;9.07;;;;;;;-142.70;100.00;60390.16;4872001;29;20032;-75
2023/03/13 03:04:57;;;;;;;8.75;7.80;;;;;;;-142.70;100.00;60390.16;4887031;29;20035;-75
2023/03/13 03:07:22;;;;;;;10.23;8.48;;;;;;;-142.70;100.00;60390.16;4887508;29;20819;-74
2023/03/13 03:09:47;;;;;;;11.70;9.48;;;;;;;-142.70;100.00;60390.16;4871730;29;20063;-76
2023/03/13 03:12:13;;;;;;;10.65;8.18;;;;;;;-142.70;100.00;60390.16;4869168;29;20043;-77
2023/03/13 03:14:38;;;;;;;11.77;9.57;;;;;;;-142.70;100.00;60390.16;4881346;29;20041;-77
2023/03/13 03:17:04;;;;;;;11.10;8.65;;;;;;;-142.70;100.00;60390.16;4852338;29;20029;-75
2023/03/13 03:19:29;;;;;;;10.93;9.75;;;;;;;-142.70;100.00;60390.16;4890720;29;20048;-76
2023/03/13 03:21:55;;;;;;;10.52;9.52;;;;;;;-142.70;100.00;60390.16;4871090;29;20032;-77
2023/03/13 03:24:20;;;;;;;10.57;8.45;;;;;;;-142.70;100.00;60390.16;4872618;29;20419;-77
2023/03/13 03:26:45;;;;;;;11.30;9.20;;;;;;;-142.70;100.00;60390.16;4879047;29;20490;-77
2023/03/13 03:29:11;;;;;;;11.93;9.63;;;;;;;-142.70;100.00;60390.16;4898861;29;20034;-77
2023/03/13 03:31:36;;;;;;;10.80;9.68;;;;;;;-142.70;100.00;60390.16;4904112;29;20028;-78
2023/03/13 03:34:02;;;;;;;10.57;9.50;;;;;;;-142.70;100.00;60390.16;4874409;29;20033;-77
2023/03/13 03:36:27;;;;;;;10.20;9.10;;;;;;;-142.70;100.00;60390.16;4902723;29;20035;-77
2023/03/13 03:38:53;;;;;;;14.75;8.60;;;;;;;-142.70;100.00;60390.16;4886569;29;20258;-76
2023/03/13 03:41:19;;;;;;;9.38;8.27;;;;;;;-142.70;100.00;60390.16;4887305;29;20036;-77
2023/03/13 03:43:46;;;;;;;11.07;9.40;;;;;;;-142.70;100.00;60390.16;4870975;29;20034;-77
2023/03/13 03:46:11;;;;;;;11.90;8.93;;;;;;;-142.70;100.00;60390.16;4887344;29;20032;-76
2023/03/13 03:48:37;;;;;;;11.63;9.27;;;;;;;-142.70;100.00;60390.16;4890574;29;20028;-77
2023/03/13 03:51:03;;;;;;;12.30;8.82;;;;;;;-142.70;100.00;60390.16;4886903;29;20036;-76
2023/03/13 03:53:28;;;;;;;9.93;8.68;;;;;;;-142.70;100.00;60390.16;4887189;29;20028;-77
2023/03/13 03:55:54;;;;;;;13.98;11.15;;;;;;;-142.70;100.00;60390.16;4900792;29;20032;-77
2023/03/13 03:58:19;;;;;;;13.27;10.48;;;;;;;-142.70;100.00;60390.16;4869171;29;20028;-76
2023/03/13 04:00:46;;;;;;;13.38;9.85;;;;;;;-142.70;100.00;60390.16;4888637;29;20422;-76
2023/03/13 04:03:12;;;;;;;9.82;8.77;;;;;;;-142.70;100.00;60390.16;4862020;29;20032;-76
2023/03/13 04:05:38;;;;;;;13.98;10.55;;;;;;;-142.70;100.00;60390.16;4873395;29;20318;-76
2023/03/13 04:08:04;;;;;;;17.48;14.13;;;;;;;-142.70;100.00;60390.16;4881821;29;20414;-77
2023/03/13 04:10:29;;;;;;;16.25;13.13;;;;;;;-142.70;100.00;60390.16;4882193;29;20025;-76
2023/03/13 04:12:54;;;;;;;20.20;15.63;;;;;;;-142.70;100.00;60390.16;4889747;29;20040;-76
2023/03/13 04:15:20;;;;;;;18.30;12.73;;;;;;;-142.70;100.00;60390.16;4890427;29;20051;-76
2023/03/13 04:17:45;;;;;;;13.68;9.77;;;;;;;-142.70;100.00;60390.16;4883993;29;20040;-77
2023/03/13 04:20:12;;;;;;;13.43;10.35;;;;;;;-142.70;100.00;60390.16;4898717;29;20052;-76
2023/03/13 04:22:39;;;;;;;12.07;9.95;;;;;;;-142.70;100.00;60390.16;4872430;29;20028;-76
2023/03/13 04:25:05;;;;;;;14.82;10.43;;;;;;;-142.70;100.00;60390.16;4874127;29;20036;-76
2023/03/13 04:27:31;;;;;;;18.20;15.10;;;;;;;-142.70;100.00;60390.16;4888698;29;20032;-77
2023/03/13 04:29:57;;;;;;;22.17;15.48;;;;;;;-142.70;100.00;60390.16;4888606;29;20414;-77
2023/03/13 04:32:22;;;;;;;78.30;42.33;;;;;;;-142.70;100.00;60390.16;4873770;29;20036;-77
2023/03/13 04:34:48;;;;;;;112.40;50.47;;;;;;;-142.70;100.00;60390.16;4875054;29;20043;-77
2023/03/13 04:37:13;;;;;;;49.08;24.80;;;;;;;-142.70;100.00;60390.16;4888786;29;20047;-77
2023/03/13 04:39:38;;;;;;;26.92;15.45;;;;;;;-142.70;100.00;60390.16;4887344;29;20043;-77
2023/03/13 04:42:04;;;;;;;14.07;11.45;;;;;;;-142.70;100.00;60390.16;4889490;29;20062;-77
2023/03/13 04:44:29;;;;;;;13.13;11.18;;;;;;;-142.70;100.00;60390.16;4884889;29;20043;-76
2023/03/13 04:46:55;;;;;;;13.77;10.00;;;;;;;-142.70;100.00;60390.16;4883189;29;20035;-77
2023/03/13 04:49:20;;;;;;;14.05;12.55;;;;;;;-142.70;100.00;60390.16;4863651;29;20039;-77
2023/03/13 04:51:46;;;;;;;16.42;12.55;;;;;;;-142.70;100.00;60390.16;4887884;29;20036;-76
2023/03/13 04:54:11;;;;;;;30.48;20.13;;;;;;;-142.70;100.00;60390.16;4862113;29;20032;-76
2023/03/13 04:56:37;;;;;;;27.90;21.30;;;;;;;-142.70;100.00;60390.16;4858299;29;20043;-76
2023/03/13 04:59:02;;;;;;;23.40;15.57;;;;;;;-142.70;100.00;60390.16;4889259;29;20495;-76
2023/03/13 05:01:28;;;;;;;15.45;12.90;;;;;;;-142.70;100.00;60390.16;4887497;29;20467;-76
2023/03/13 05:03:53;;;;;;;11.82;10.60;;;;;;;-142.70;100.00;60390.16;4880772;29;20064;-77
2023/03/13 05:06:19;;;;;;;15.73;12.25;;;;;;;-142.70;100.00;60390.16;4887760;29;20581;-77
2023/03/13 05:08:44;;;;;;;18.60;12.48;;;;;;;-142.70;100.00;60390.16;4888210;29;20028;-76
2023/03/13 05:11:10;;;;;;;11.95;10.43;;;;;;;-142.70;100.00;60390.16;4888086;29;20409;-76
2023/03/13 05:13:35;;;;;;;9.85;8.82;;;;;;;-142.70;100.00;60390.16;4887640;29;20481;-77
2023/03/13 05:16:01;;;;;;;14.40;11.98;;;;;;;-142.70;100.00;60390.16;4888214;29;20040;-76
2023/03/13 05:18:26;;;;;;;13.50;10.63;;;;;;;-142.70;100.00;60390.16;4885977;29;20134;-75
2023/03/13 05:20:51;;;;;;;13.60;10.48;;;;;;;-142.70;100.00;60390.16;4888157;29;20064;-74
2023/03/13 05:23:17;;;;;;;15.85;10.25;;;;;;;-142.70;100.00;60390.16;4880277;29;20029;-74
2023/03/13 05:25:42;;;;;;;18.42;12.93;;;;;;;-142.70;100.00;60390.16;4886035;29;20990;-77
2023/03/13 05:28:08;;;;;;;16.50;14.10;;;;;;;-142.70;100.00;60390.16;4872313;29;20039;-74
2023/03/13 05:30:33;;;;;;;21.85;17.40;;;;;;;-142.70;100.00;60390.16;4887711;29;20472;-75
2023/03/13 05:32:59;;;;;;;11.15;9.95;;;;;;;-142.70;100.00;60390.16;4905019;29;20458;-76
2023/03/13 05:35:24;;;;;;;25.48;16.05;;;;;;;-142.70;100.00;60390.16;4887044;29;20036;-77
2023/03/13 05:37:50;;;;;;;13.50;10.20;;;;;;;-142.70;100.00;60390.16;4905821;29;20486;-77
2023/03/13 05:40:15;;;;;;;10.10;8.48;;;;;;;-142.70;100.00;60390.16;4886685;29;20410;-77
2023/03/13 05:42:40;;;;;;;11.18;8.88;;;;;;;-142.70;100.00;60390.16;4901458;29;20052;-78
2023/03/13 05:45:08;;;;;;;9.77;8.07;;;;;;;-142.70;100.00;60390.16;4877857;29;20024;-77
2023/03/13 05:47:34;;;;;;;9.07;6.72;;;;;;;-142.70;100.00;60390.16;4880443;29;20111;-77
2023/03/13 05:50:00;;;;;;;26.88;15.32;;;;;;;-142.70;100.00;60390.16;4899486;29;20024;-78
2023/03/13 05:52:26;;;;;;;36.90;21.27;;;;;;;-142.70;100.00;60390.16;4888029;29;20833;-78
2023/03/13 05:54:51;;;;;;;22.20;14.98;;;;;;;-142.70;100.00;60390.16;4877786;29;20032;-78
2023/03/13 05:57:16;;;;;;;15.45;13.00;;;;;;;-142.70;100.00;60390.16;4888105;29;20549;-79
2023/03/13 05:59:42;;;;;;;10.85;9.10;;;;;;;-142.70;100.00;60390.16;4884624;29;20091;-79
2023/03/13 06:02:08;;;;;;;9.00;8.10;;;;;;;-142.70;100.00;60390.16;4870906;29;20533;-79
2023/03/13 06:04:34;;;;;;;8.52;7.63;;;;;;;-142.70;100.00;60390.16;4888832;29;20030;-79
2023/03/13 06:07:00;;;;;;;8.38;7.50;;;;;;;-142.70;100.00;60390.16;4886182;29;20067;-83
2023/03/13 06:09:25;;;;;;;7.80;7.07;;;;;;;-142.70;100.00;60390.16;4871578;29;20055;-80
2023/03/13 06:11:51;;;;;;;8.10;6.00;;;;;;;-142.70;100.00;60390.16;4887163;29;20493;-81
2023/03/13 06:14:16;;;;;;;6.63;6.13;;;;;;;-142.70;100.00;60390.16;4893466;29;20028;-80
2023/03/13 06:16:42;;;;;;;8.15;7.35;;;;;;;-142.70;100.00;60390.16;4872725;29;20502;-79
2023/03/13 06:19:07;;;;;;;7.15;6.63;;;;;;;-142.70;100.00;60390.16;4865878;29;20109;-79
2023/03/13 06:21:33;;;;;;;9.98;7.80;;;;;;;-142.70;100.00;60390.16;4883928;29;20484;-78
2023/03/13 06:23:58;;;;;;;7.88;7.15;;;;;;;-142.70;100.00;60390.16;4882532;29;20033;-79
2023/03/13 06:26:24;;;;;;;7.38;6.78;;;;;;;-142.70;100.00;60390.16;4868390;29;20017;-78
2023/03/13 06:28:50;;;;;;;7.18;6.57;;;;;;;-142.70;100.00;60390.16;4867023;29;20127;-78
2023/03/13 06:31:15;;;;;;;6.88;6.28;;;;;;;-142.70;100.00;60390.16;4866935;29;20144;-77
2023/03/13 06:33:41;;;;;;;6.47;5.80;;;;;;;-142.70;100.00;60390.16;4883709;29;20092;-77
2023/03/13 06:36:07;;;;;;;7.85;7.05;;;;;;;-142.70;100.00;60390.16;4882150;29;20036;-75
2023/03/13 06:38:32;;;;;;;7.32;6.72;;;;;;;-142.70;100.00;60390.16;4884364;29;20040;-75
2023/03/13 06:40:58;;;;;;;7.22;6.63;;;;;;;-142.70;100.00;60390.16;4881692;29;20032;-75
2023/03/13 06:43:23;;;;;;;7.18;6.47;;;;;;;-142.70;100.00;60390.16;4883347;29;20036;-82
2023/03/13 06:45:49;;;;;;;8.57;7.65;;;;;;;-142.70;100.00;60390.16;4866667;29;20753;-76
2023/03/13 06:48:14;;;;;;;7.22;6.63;;;;;;;-142.70;100.00;60390.16;4854444;29;20029;-76
2023/03/13 06:50:40;;;;;;;7.03;6.40;;;;;;;-142.70;100.00;60390.16;4884573;29;20112;-76
2023/03/13 06:53:06;;;;;;;7.00;6.38;;;;;;;-142.70;100.00;60390.16;4858399;29;20043;-75
2023/03/13 06:55:32;;;;;;;6.75;6.25;;;;;;;-142.70;100.00;60390.16;4893757;29;20498;-76
2023/03/13 06:57:57;;;;;;;5.60;5.20;;;;;;;-142.70;100.00;60390.16;4866420;29;20498;-75
2023/03/13 07:00:23;;;;;;;7.22;6.57;;;;;;;-142.70;100.00;60390.16;4867896;29;20024;-75
2023/03/13 07:02:49;;;;;;;6.45;5.95;;;;;;;-142.70;100.00;60390.16;4866153;29;20604;-75
2023/03/13 07:05:15;;;;;;;6.32;5.82;;;;;;;-142.70;100.00;60390.16;4867922;29;20442;-76
2023/03/13 07:07:41;;;;;;;6.55;6.05;;;;;;;-142.70;100.00;60390.16;4882614;29;20025;-76
2023/03/13 07:10:07;;;;;;;6.25;5.75;;;;;;;-142.70;100.00;60390.16;4883121;29;20032;-76
2023/03/13 07:12:36;;;;;;;7.10;6.03;;;;;;;-142.70;100.00;60390.16;4882954;29;20043;-76
2023/03/13 07:15:03;;;;;;;5.93;5.50;;;;;;;-142.70;100.00;60390.16;4882126;29;20040;-76
2023/03/13 07:17:28;;;;;;;5.70;5.30;;;;;;;-142.70;100.00;60390.16;4847627;29;20040;-76
2023/03/13 07:19:53;;;;;;;5.60;5.10;;;;;;;-142.70;100.00;60390.16;4861012;29;20052;-76
2023/03/13 07:22:19;;;;;;;6.45;5.93;;;;;;;-142.70;100.00;60390.16;4845343;29;20030;-76
2023/03/13 07:24:44;;;;;;;5.50;5.10;;;;;;;-142.70;100.00;60390.16;4881777;29;20115;-76
2023/03/13 07:27:10;;;;;;;6.10;5.55;;;;;;;-142.70;100.00;60390.16;4872382;29;20029;-76
2023/03/13 07:29:35;;;;;;;5.63;5.22;;;;;;;-142.70;100.00;60390.16;4896518;29;20033;-76
2023/03/13 07:32:01;;;;;;;5.32;4.93;;;;;;;-142.70;100.00;60390.16;4872975;29;20503;-76
2023/03/13 07:34:26;;;;;;;5.85;5.35;;;;;;;-142.70;100.00;60390.16;4879178;29;20124;-76
2023/03/13 07:36:52;;;;;;;5.35;4.95;;;;;;;-142.70;100.00;60390.16;4866448;29;20048;-76
2023/03/13 07:39:17;;;;;;;6.03;5.47;;;;;;;-142.70;100.00;60390.16;4867647;29;20128;-76
2023/03/13 07:41:43;;;;;;;5.63;5.07;;;;;;;-142.70;100.00;60390.16;4883609;29;20143;-76
2023/03/13 07:44:08;;;;;;;5.60;5.20;;;;;;;-142.70;100.00;60390.16;4861286;29;20143;-76
2023/03/13 07:46:33;;;;;;;6.97;6.43;;;;;;;-142.70;100.00;60390.16;4858336;29;20423;-76
2023/03/13 07:48:59;;;;;;;6.28;5.78;;;;;;;-142.70;100.00;60390.16;4865725;29;20112;-77
2023/03/13 07:51:25;;;;;;;6.95;6.40;;;;;;;-142.70;100.00;60390.16;4859943;29;20464;-76
2023/03/13 07:53:51;;;;;;;7.53;6.93;;;;;;;-142.70;100.00;60390.16;4872775;29;20029;-75
2023/03/13 07:56:19;;;;;;;7.70;7.10;;;;;;;-142.70;100.00;60390.16;4863758;29;20638;-76
2023/03/13 07:58:45;;;;;;;7.60;6.90;;;;;;;-142.70;100.00;60390.16;4867897;29;20048;-76
2023/03/13 08:01:15;;;;;;;8.63;7.70;;;;;;;-142.70;100.00;60390.16;4866996;29;20021;-77
2023/03/13 08:03:42;;;;;;;8.15;7.45;;;;;;;-142.70;100.00;60390.16;4855254;29;20801;-77
2023/03/13 08:06:12;;;;;;;10.80;7.03;;;;;;;-142.70;100.00;60390.16;4862398;29;20120;-77
2023/03/13 08:08:38;;;;;;;7.95;7.25;;;;;;;-142.70;100.00;60390.16;4853541;29;20069;-77
2023/03/13 08:11:11;;;;;;;7.22;6.63;;;;;;;-142.70;100.00;60390.16;4863240;29;20131;-77
2023/03/13 08:13:37;;;;;;;7.10;6.25;;;;;;;-142.70;100.00;60390.16;4858544;29;20151;-77
2023/03/13 08:16:08;;;;;;;6.38;5.88;;;;;;;-142.70;100.00;60390.16;4869045;29;20127;-77
2023/03/13 08:18:34;;;;;;;7.05;6.15;;;;;;;-142.70;100.00;60390.16;4856445;29;20558;-77
2023/03/13 08:21:05;;;;;;;19.27;6.85;;;;;;;-142.70;100.00;60390.16;4858106;29;20055;-78
2023/03/13 08:23:31;;;;;;;6.97;6.38;;;;;;;-142.70;100.00;60390.16;4844871;29;20206;-77
2023/03/13 08:26:04;;;;;;;7.93;7.22;;;;;;;-142.70;100.00;60390.16;4882246;29;20036;-77
2023/03/13 08:28:29;;;;;;;7.75;7.15;;;;;;;-142.70;100.00;60390.16;4870653;29;20052;-77
2023/03/13 08:30:55;;;;;;;7.25;6.53;;;;;;;-142.70;100.00;60390.16;4874937;29;20326;-77
2023/03/13 08:33:20;;;;;;;7.97;7.38;;;;;;;-142.70;100.00;60390.16;4888589;29;20405;-77
2023/03/13 08:35:46;;;;;;;6.80;6.20;;;;;;;-142.70;100.00;60390.16;4888791;29;20039;-77
2023/03/13 08:38:11;;;;;;;6.78;6.07;;;;;;;-142.70;100.00;60390.16;4876734;29;20048;-77
2023/03/13 08:40:36;;;;;;;6.78;6.18;;;;;;;-142.70;100.00;60390.16;4859000;29;20569;-77
2023/03/13 08:43:02;;;;;;;6.65;5.95;;;;;;;-142.70;100.00;60390.16;4888593;29;20028;-77
2023/03/13 08:45:27;;;;;;;7.05;6.35;;;;;;;-142.70;100.00;60390.16;4889020;29;20032;-77
2023/03/13 08:47:53;;;;;;;5.68;5.18;;;;;;;-142.70;100.00;60390.16;4863023;29;20048;-77
2023/03/13 08:50:19;;;;;;;6.10;5.50;;;;;;;-142.70;100.00;60390.16;4870329;29;20395;-77
2023/03/13 08:52:45;;;;;;;6.32;5.78;;;;;;;-142.70;100.00;60390.16;4906747;29;20111;-77
2023/03/13 08:55:10;;;;;;;6.78;6.18;;;;;;;-142.70;100.00;60390.16;4872560;29;20135;-77
2023/03/13 08:57:35;;;;;;;6.53;5.95;;;;;;;-142.70;100.00;60390.16;4882220;29;20036;-77
2023/03/13 09:00:01;;;;;;;6.78;6.15;;;;;;;-142.70;100.00;60390.16;4897888;29;20461;-77
2023/03/13 09:02:26;;;;;;;5.15;4.75;;;;;;;-142.70;100.00;60390.16;4889429;29;20402;-77
2023/03/13 09:04:52;;;;;;;6.00;5.47;;;;;;;-142.70;100.00;60390.16;4865253;29;20036;-77
2023/03/13 09:07:18;;;;;;;6.78;5.95;;;;;;;-142.70;100.00;60390.16;4900607;29;20115;-80
2023/03/13 09:09:43;;;;;;;6.32;5.70;;;;;;;-142.70;100.00;60390.16;4883197;29;20631;-76
2023/03/13 09:12:09;;;;;;;6.40;5.80;;;;;;;-142.70;100.00;60390.16;4858775;29;20028;-76
2023/03/13 09:14:35;;;;;;;6.40;5.80;;;;;;;-142.70;100.00;60390.16;4871888;29;20028;-76
2023/03/13 09:17:00;;;;;;;7.03;6.30;;;;;;;-142.70;100.00;60390.16;4886742;29;20040;-76
2023/03/13 09:19:26;;;;;;;6.22;5.63;;;;;;;-142.70;100.00;60390.16;4891844;29;20209;-77
2023/03/13 09:21:51;;;;;;;6.53;6.03;;;;;;;-142.70;100.00;60390.16;4883848;29;20135;-77
2023/03/13 09:24:16;;;;;;;11.52;5.70;;;;;;;-142.70;100.00;60390.16;4895521;29;20083;-77
2023/03/13 09:26:42;;;;;;;6.43;5.35;;;;;;;-142.70;100.00;60390.16;4872050;29;20083;-77
2023/03/13 09:29:08;;;;;;;5.60;5.20;;;;;;;-142.70;100.00;60390.16;4862646;29;20865;-76
2023/03/13 09:31:34;;;;;;;5.78;5.28;;;;;;;-142.70;100.00;60390.16;4881659;29;20040;-76
2023/03/13 09:33:59;;;;;;;5.53;5.03;;;;;;;-142.70;100.00;60390.16;4874948;29;20040;-77
2023/03/13 09:36:26;;;;;;;5.43;4.93;;;;;;;-142.70;100.00;60390.16;4883825;29;20032;-76
2023/03/13 09:38:53;;;;;;;5.53;5.03;;;;;;;-142.70;100.00;60390.16;4847739;29;20242;-75
2023/03/13 09:41:21;;;;;;;4.80;4.40;;;;;;;-142.70;100.00;60390.16;4874535;29;20043;-76
2023/03/13 09:43:56;;;;;;;5.45;4.95;;;;;;;-142.70;100.00;60390.16;4873968;29;20024;-76
2023/03/13 09:46:30;;;;;;;5.47;5.07;;;;;;;-142.70;100.00;60390.16;4873821;29;20047;-76
2023/03/13 09:49:01;;;;;;;5.75;5.35;;;;;;;-142.70;100.00;60390.16;4878940;29;20438;-77
2023/03/13 09:51:35;;;;;;;5.90;5.35;;;;;;;-142.70;100.00;60390.16;4885099;29;20028;-76
2023/03/13 09:54:00;;;;;;;5.30;4.90;;;;;;;-142.70;100.00;60390.16;4888105;29;20032;-76
2023/03/13 09:56:44;;;;;;;5.57;4.50;;;;;;;-142.70;100.00;60390.16;4902269;29;20047;-77
2023/03/13 09:59:18;;;;;;;4.90;4.50;;;;;;;-142.70;100.00;60390.16;4873704;29;20083;-77
2023/03/13 10:01:45;;;;;;;5.65;5.15;;;;;;;-142.70;100.00;60390.16;4887320;29;20406;-76
2023/03/13 10:04:27;;;;;;;4.95;4.55;;;;;;;-142.70;100.00;60390.16;4885577;29;20473;-76
2023/03/13 10:06:52;;;;;;;5.40;5.00;;;;;;;-142.70;100.00;60390.16;4883164;29;20126;-77
2023/03/13 10:09:22;;;;;;;7.65;6.35;;;;;;;-142.70;100.00;60390.16;4880283;29;20514;-75
2023/03/13 10:12:02;;;;;;;6.95;5.53;;;;;;;-142.70;100.00;60390.16;4887431;29;20028;-77
2023/03/13 10:14:48;;;;;;;5.95;4.97;;;;;;;-142.70;100.00;60390.16;4903644;29;20082;-76
2023/03/13 10:17:33;;;;;;;4.70;4.30;;;;;;;-142.70;100.00;60390.16;4900771;29;20047;-76
2023/03/13 10:20:10;;;;;;;4.20;3.83;;;;;;;-142.70;100.00;60390.16;4868569;29;20144;-77
2023/03/13 10:22:36;;;;;;;4.97;4.47;;;;;;;-142.70;100.00;60390.16;4897628;29;20031;-76
2023/03/13 10:25:21;;;;;;;4.57;4.05;;;;;;;-142.70;100.00;60390.16;4877186;29;20071;-76
2023/03/13 10:27:50;;;;;;;5.53;4.88;;;;;;;-142.70;100.00;60390.16;4877760;29;20032;-77
2023/03/13 10:30:28;;;;;;;4.03;3.72;;;;;;;-142.70;100.00;60390.16;4867482;29;20414;-77
2023/03/13 10:33:19;;;;;;;5.00;4.45;;;;;;;-142.70;100.00;60390.16;4879131;29;20471;-76
2023/03/13 10:35:45;;;;;;;5.65;4.13;;;;;;;-142.70;100.00;60390.16;4875510;29;20044;-76
2023/03/13 10:38:17;;;;;;;4.22;3.92;;;;;;;-142.70;100.00;60390.16;4868031;29;20040;-76
2023/03/13 10:40:43;;;;;;;4.32;3.97;;;;;;;-142.70;100.00;60390.16;4858385;29;20147;-76
2023/03/13 10:43:22;;;;;;;4.32;4.03;;;;;;;-142.70;100.00;60390.16;4856266;29;20506;-76
2023/03/13 10:45:48;;;;;;;4.50;4.10;;;;;;;-142.70;100.00;60390.16;4863292;29;20029;-76
2023/03/13 10:48:18;;;;;;;4.70;4.10;;;;;;;-142.70;100.00;60390.16;4847639;29;20097;-76
2023/03/13 10:50:49;;;;;;;4.45;4.13;;;;;;;-142.70;100.00;60390.16;4868773;29;20527;-76
2023/03/13 10:53:20;;;;;;;4.70;4.20;;;;;;;-142.70;100.00;60390.16;4871533;29;20032;-75
2023/03/13 10:55:46;;;;;;;4.30;3.92;;;;;;;-142.70;100.00;60390.16;4873473;29;20052;-76
2023/03/13 10:58:22;;;;;;;4.57;4.20;;;;;;;-142.70;100.00;60390.16;4858955;29;20573;-76
2023/03/13 11:00:48;;;;;;;4.13;3.72;;;;;;;-142.70;100.00;60390.16;4882056;29;20164;-77
2023/03/13 11:03:25;;;;;;;3.90;3.60;;;;;;;-142.70;100.00;60390.16;4884768;29;20928;-77